Time;durP1;ratioP1;P1;durP2;ratioP2;P2;SDS_P1;SDS_P2;PMS_P1;PMS_P2;Temp;Humidity;BMP_temperature;BMP_pressure;BME280_temperature;BME280_humidity;BME280_pressure;Samples;Min_cycle;Max_cycle;Signal;HPM_P1;HPM_P2
2021/11/02 00:01:55;;;;;;;8.77;4.63;;;;;;;;;;5115096;28;20042;-74
2021/11/02 00:04:21;;;;;;;7.35;4.32;;;;;;;;;;5115075;28;20052;-74
2021/11/02 00:06:47;;;;;;;6.70;4.88;;;;;;;;;;5121667;28;20035;-75
2021/11/02 00:09:16;;;;;;;8.70;4.80;;;;;;;;;;5095228;28;20044;-75
2021/11/02 00:11:43;;;;;;;7.93;4.95;;;;;;;;;;5087319;28;20043;-76
2021/11/02 00:14:12;;;;;;;8.82;5.22;;;;;;;;;;5087082;28;20052;-75
2021/11/02 00:16:39;;;;;;;9.27;4.80;;;;;;;;;;5113952;28;20048;-75
2021/11/02 00:19:06;;;;;;;11.95;5.45;;;;;;;;;;5121160;28;20046;-75
2021/11/02 00:21:35;;;;;;;;;;;;;;;;;;5118022;28;20040;-75
2021/11/02 00:24:26;;;;;;;7.30;4.77;;;;;;;;;;5115424;28;20528;-74
2021/11/02 00:26:52;;;;;;;6.32;4.95;;;;;;;;;;5119897;28;20274;-74
2021/11/02 00:29:19;;;;;;;11.40;5.68;;;;;;;;;;5116785;28;20044;-74
2021/11/02 00:31:45;;;;;;;8.73;5.68;;;;;;;;;;5119855;28;20043;-74
2021/11/02 00:34:11;;;;;;;11.77;5.90;;;;;;;;;;5122868;28;20208;-74
2021/11/02 00:36:37;;;;;;;11.18;5.20;;;;;;;;;;5121676;28;20058;-74
2021/11/02 00:39:04;;;;;;;12.20;5.38;;;;;;;;;;5115025;28;20064;-75
2021/11/02 00:41:30;;;;;;;12.10;6.30;;;;;;;;;;5113637;28;20048;-75
2021/11/02 00:43:56;;;;;;;10.52;5.82;;;;;;;;;;5111616;28;20048;-74
2021/11/02 00:46:31;;;;;;;9.32;5.18;;;;;;;;;;5118481;28;20055;-74
2021/11/02 00:48:58;;;;;;;10.73;5.40;;;;;;;;;;5110560;28;20052;-74
2021/11/02 00:51:24;;;;;;;9.73;6.10;;;;;;;;;;5100272;28;20507;-74
2021/11/02 00:53:50;;;;;;;10.07;5.85;;;;;;;;;;5122022;28;20045;-74
2021/11/02 00:56:16;;;;;;;13.85;6.30;;;;;;;;;;5104768;28;20044;-74
2021/11/02 00:58:42;;;;;;;10.93;7.45;;;;;;;;;;5120977;28;20555;-74
2021/11/02 01:01:09;;;;;;;10.15;5.78;;;;;;;;;;5096056;28;20047;-74
2021/11/02 01:03:36;;;;;;;10.50;6.53;;;;;;;;;;5107672;28;20046;-74
2021/11/02 01:06:03;;;;;;;10.20;7.25;;;;;;;;;;5110365;28;20048;-74
2021/11/02 01:08:29;;;;;;;10.00;5.88;;;;;;;;;;5120545;28;20051;-74
2021/11/02 01:10:55;;;;;;;9.15;6.45;;;;;;;;;;5095817;28;20286;-74
2021/11/02 01:13:21;;;;;;;18.05;7.32;;;;;;;;;;5115478;28;20531;-75
2021/11/02 01:15:47;;;;;;;15.43;7.18;;;;;;;;;;5120667;28;20032;-74
2021/11/02 01:18:13;;;;;;;10.48;6.82;;;;;;;;;;5112564;28;20098;-74
2021/11/02 01:20:40;;;;;;;11.48;7.00;;;;;;;;;;5112803;28;20040;-75
2021/11/02 01:23:06;;;;;;;9.73;6.93;;;;;;;;;;5117234;28;20082;-75
2021/11/02 01:25:33;;;;;;;12.35;6.30;;;;;;;;;;5088373;28;20052;-75
2021/11/02 01:27:59;;;;;;;11.25;7.85;;;;;;;;;;5108561;28;20047;-74
2021/11/02 01:30:26;;;;;;;9.45;7.28;;;;;;;;;;5096107;28;20051;-75
2021/11/02 01:32:52;;;;;;;11.20;7.18;;;;;;;;;;5121734;28;20047;-74
2021/11/02 01:35:18;;;;;;;11.82;7.30;;;;;;;;;;5115768;28;20090;-75
2021/11/02 01:37:45;;;;;;;13.23;8.00;;;;;;;;;;5108837;28;20063;-75
2021/11/02 01:40:12;;;;;;;12.35;8.10;;;;;;;;;;5110271;28;20048;-74
2021/11/02 01:42:39;;;;;;;15.18;8.52;;;;;;;;;;5095730;28;20031;-75
2021/11/02 01:45:07;;;;;;;12.77;8.55;;;;;;;;;;5110960;28;20052;-74
2021/11/02 01:47:34;;;;;;;12.68;8.52;;;;;;;;;;5110600;28;20071;-75
2021/11/02 01:50:01;;;;;;;11.23;7.97;;;;;;;;;;5121753;28;20047;-74
2021/11/02 01:52:27;;;;;;;13.75;8.77;;;;;;;;;;5114742;28;20051;-75
2021/11/02 01:54:54;;;;;;;13.68;8.40;;;;;;;;;;5120169;28;20395;-74
2021/11/02 01:57:20;;;;;;;11.68;8.98;;;;;;;;;;5107973;28;20052;-74
2021/11/02 01:59:46;;;;;;;14.07;9.13;;;;;;;;;;5109980;28;20114;-74
2021/11/02 02:02:24;;;;;;;11.98;8.85;;;;;;;;;;5094304;28;20130;-75
2021/11/02 02:04:57;;;;;;;18.33;8.95;;;;;;;;;;5119346;28;20048;-74
2021/11/02 02:07:30;;;;;;;21.83;9.10;;;;;;;;;;5111406;28;20039;-74
2021/11/02 02:10:14;;;;;;;17.30;9.77;;;;;;;;;;5115714;28;20484;-74
2021/11/02 02:12:56;;;;;;;17.25;10.38;;;;;;;;;;5117753;28;20040;-74
2021/11/02 02:15:25;;;;;;;18.48;10.65;;;;;;;;;;5119832;28;20180;-74
2021/11/02 02:17:57;;;;;;;15.48;10.82;;;;;;;;;;5117875;28;20036;-74
2021/11/02 02:20:29;;;;;;;16.10;10.10;;;;;;;;;;5102260;28;20040;-74
2021/11/02 02:23:01;;;;;;;16.58;11.48;;;;;;;;;;5094997;28;20301;-74
2021/11/02 02:25:33;;;;;;;17.73;12.18;;;;;;;;;;5119929;28;20053;-74
2021/11/02 02:28:07;;;;;;;15.70;11.35;;;;;;;;;;5102473;28;20048;-74
2021/11/02 02:30:37;;;;;;;15.95;11.43;;;;;;;;;;5116728;28;20043;-74
2021/11/02 02:33:03;;;;;;;20.35;12.07;;;;;;;;;;5113907;28;20047;-74
2021/11/02 02:35:30;;;;;;;18.75;11.85;;;;;;;;;;5093036;28;20191;-74
2021/11/02 02:37:57;;;;;;;20.42;11.63;;;;;;;;;;5114063;28;20052;-73
2021/11/02 02:40:24;;;;;;;24.63;12.00;;;;;;;;;;5107788;28;20103;-74
2021/11/02 02:42:50;;;;;;;22.52;12.82;;;;;;;;;;5100212;28;20073;-74
2021/11/02 02:45:17;;;;;;;20.20;12.93;;;;;;;;;;5112658;28;20047;-74
2021/11/02 02:47:44;;;;;;;23.67;13.07;;;;;;;;;;5087594;28;20130;-74
2021/11/02 02:50:10;;;;;;;23.45;13.68;;;;;;;;;;5115019;28;20097;-74
2021/11/02 02:52:36;;;;;;;27.60;14.38;;;;;;;;;;5113861;28;20505;-74
2021/11/02 02:55:04;;;;;;;24.23;13.55;;;;;;;;;;5118141;28;20032;-74
2021/11/02 02:57:30;;;;;;;26.25;14.32;;;;;;;;;;5089731;28;20055;-74
2021/11/02 02:59:57;;;;;;;25.77;14.73;;;;;;;;;;5117753;28;20043;-74
2021/11/02 03:02:25;;;;;;;26.52;14.98;;;;;;;;;;5120901;28;20298;-74
2021/11/02 03:04:53;;;;;;;29.80;15.27;;;;;;;;;;5113846;28;20047;-74
2021/11/02 03:07:20;;;;;;;24.77;15.20;;;;;;;;;;5108707;28;20085;-74
2021/11/02 03:09:46;;;;;;;24.00;14.90;;;;;;;;;;5104750;28;20082;-73
2021/11/02 03:12:13;;;;;;;31.85;17.15;;;;;;;;;;5121690;28;20041;-74
2021/11/02 03:18:01;;;;;;;22.95;15.38;;;;;;;;;;5041481;28;20184;-74
2021/11/02 03:49:02;;;;;;;26.70;16.85;;;;;;;;;;5021878;28;20047;-74
2021/11/02 03:57:08;;;;;;;31.37;17.77;;;;;;;;;;5112849;28;20075;-74
2021/11/02 04:33:21;;;;;;;35.97;19.60;;;;;;;;;;5067457;28;20060;-74
2021/11/02 06:00:02;;;;;;;49.67;25.67;;;;;;;;;;5122816;28;20107;-73
2021/11/02 06:28:10;;;;;;;46.10;23.30;;;;;;;;;;5032750;28;20169;-74
2021/11/02 06:31:21;;;;;;;42.25;23.80;;;;;;;;;;5028162;28;20061;-74
2021/11/02 06:53:03;;;;;;;65.93;27.60;;;;;;;;;;5024574;28;20049;-74
2021/11/02 07:19:53;;;;;;;60.70;28.40;;;;;;;;;;5095859;28;20040;-73
2021/11/02 08:48:18;;;;;;;43.83;26.60;;;;;;;;;;5072228;28;20119;-71
2021/11/02 08:50:50;;;;;;;46.67;27.90;;;;;;;;;;5115043;28;20039;-68
2021/11/02 08:53:16;;;;;;;49.58;25.88;;;;;;;;;;5116140;28;20048;-75
2021/11/02 08:55:43;;;;;;;42.72;25.30;;;;;;;;;;5118493;28;20048;-74
2021/11/02 08:58:09;;;;;;;43.90;25.10;;;;;;;;;;5098962;28;20052;-75
2021/11/02 09:00:45;;;;;;;42.17;25.02;;;;;;;;;;5117812;28;20044;-74
2021/11/02 09:03:15;;;;;;;44.35;24.92;;;;;;;;;;5118796;28;20047;-75
2021/11/02 09:05:42;;;;;;;46.67;26.60;;;;;;;;;;5099963;28;20040;-74
2021/11/02 09:08:11;;;;;;;43.28;26.35;;;;;;;;;;5122712;28;20104;-74
2021/11/02 09:10:41;;;;;;;45.67;25.00;;;;;;;;;;5098704;28;20040;-74
2021/11/02 09:13:09;;;;;;;42.35;25.92;;;;;;;;;;5117769;28;20054;-75
2021/11/02 09:15:36;;;;;;;36.92;22.75;;;;;;;;;;5094984;28;20040;-75
2021/11/02 09:18:03;;;;;;;37.88;21.77;;;;;;;;;;5112534;28;20043;-75
2021/11/02 09:20:30;;;;;;;42.70;23.75;;;;;;;;;;5120930;28;20071;-74
2021/11/02 09:22:56;;;;;;;41.38;24.52;;;;;;;;;;5114289;28;20508;-74
2021/11/02 09:25:22;;;;;;;42.13;24.58;;;;;;;;;;5119168;28;20101;-75
2021/11/02 09:27:49;;;;;;;37.58;23.67;;;;;;;;;;5112975;28;20430;-75
2021/11/02 09:30:16;;;;;;;32.85;20.70;;;;;;;;;;5120047;28;20051;-74
2021/11/02 09:32:46;;;;;;;29.77;20.07;;;;;;;;;;5094157;28;20090;-75
2021/11/02 09:35:14;;;;;;;39.03;22.30;;;;;;;;;;5100128;28;20297;-75
2021/11/02 09:37:47;;;;;;;30.27;20.02;;;;;;;;;;5099268;28;22178;-75
2021/11/02 09:40:26;;;;;;;33.55;18.90;;;;;;;;;;5101648;28;20055;-74
2021/11/02 09:42:54;;;;;;;34.95;20.45;;;;;;;;;;5097463;28;20055;-75
2021/11/02 09:45:32;;;;;;;37.13;20.65;;;;;;;;;;5115731;28;20077;-75
2021/11/02 09:48:01;;;;;;;35.42;20.95;;;;;;;;;;5113052;28;20047;-75
2021/11/02 09:50:33;;;;;;;35.53;17.73;;;;;;;;;;5094837;28;20043;-75
2021/11/02 09:53:12;;;;;;;28.42;19.45;;;;;;;;;;5095321;28;20048;-72
2021/11/02 09:55:57;;;;;;;30.83;20.42;;;;;;;;;;5114625;28;21632;-72
2021/11/02 09:58:26;;;;;;;25.23;17.15;;;;;;;;;;5100327;28;20080;-71
2021/11/02 10:00:57;;;;;;;29.70;18.80;;;;;;;;;;5114119;28;20046;-64
2021/11/02 10:03:43;;;;;;;26.13;17.02;;;;;;;;;;5093615;28;20048;-66
2021/11/02 10:06:16;;;;;;;25.15;17.42;;;;;;;;;;5110614;28;20051;-64
2021/11/02 10:08:44;;;;;;;26.48;17.45;;;;;;;;;;5089063;28;20043;-66
2021/11/02 10:11:10;;;;;;;25.50;16.50;;;;;;;;;;5120768;28;20047;-60
2021/11/02 10:13:46;;;;;;;23.40;16.55;;;;;;;;;;5114795;28;20043;-68
2021/11/02 10:16:28;;;;;;;26.08;16.20;;;;;;;;;;5114012;28;20055;-67
2021/11/02 10:19:01;;;;;;;20.92;15.27;;;;;;;;;;5095890;28;20068;-68
2021/11/02 10:21:39;;;;;;;23.88;14.52;;;;;;;;;;5096559;28;20036;-66
2021/11/02 10:24:08;;;;;;;19.05;13.88;;;;;;;;;;5115484;28;20043;-70
2021/11/02 10:26:40;;;;;;;20.30;14.60;;;;;;;;;;5116284;28;20057;-68
2021/11/02 10:29:25;;;;;;;22.25;13.80;;;;;;;;;;5112840;28;20051;-68
2021/11/02 10:31:53;;;;;;;17.65;13.98;;;;;;;;;;5117154;28;20040;-66
2021/11/02 10:34:35;;;;;;;21.08;14.13;;;;;;;;;;5094434;28;20054;-64
2021/11/02 10:37:12;;;;;;;18.98;14.02;;;;;;;;;;5111113;28;20131;-64
2021/11/02 10:40:03;;;;;;;23.17;13.98;;;;;;;;;;5108769;28;20051;-65
2021/11/02 10:42:30;;;;;;;17.38;12.52;;;;;;;;;;5116756;28;20510;-66
2021/11/02 10:45:00;;;;;;;16.73;13.48;;;;;;;;;;5094623;28;20056;-68
2021/11/02 10:47:46;;;;;;;22.38;13.23;;;;;;;;;;5116694;28;20044;-63
2021/11/02 10:50:13;;;;;;;18.08;13.48;;;;;;;;;;5098312;28;20051;-68
2021/11/02 10:52:40;;;;;;;18.87;14.43;;;;;;;;;;5096539;28;20043;-81
2021/11/02 10:55:12;;;;;;;21.03;14.33;;;;;;;;;;5118316;28;20098;-67
2021/11/02 10:57:38;;;;;;;19.17;13.93;;;;;;;;;;5095870;28;20052;-73
2021/11/02 11:00:06;;;;;;;19.55;13.85;;;;;;;;;;5091578;28;20120;-68
2021/11/02 11:02:32;;;;;;;;;;;;;;;;;;5113449;28;20045;-65
2021/11/02 11:04:59;;;;;;;20.25;13.45;;;;;;;;;;5090440;28;19927;-67
2021/11/02 11:07:32;;;;;;;15.77;13.43;;;;;;;;;;5088756;28;20075;-66
2021/11/02 11:09:58;;;;;;;20.38;14.82;;;;;;;;;;5094207;28;20035;-66
2021/11/02 11:12:27;;;;;;;20.85;14.10;;;;;;;;;;5094068;28;20055;-66
2021/11/02 11:14:55;;;;;;;19.60;12.65;;;;;;;;;;5092749;28;20124;-66
2021/11/02 11:17:26;;;;;;;18.45;14.18;;;;;;;;;;5112158;28;20106;-76
2021/11/02 11:19:53;;;;;;;18.27;12.45;;;;;;;;;;5095453;28;20112;-77
2021/11/02 11:22:22;;;;;;;16.90;12.35;;;;;;;;;;5093524;28;20146;-69
2021/11/02 11:25:02;;;;;;;15.68;12.43;;;;;;;;;;5113169;28;20044;-72
2021/11/02 11:27:28;;;;;;;15.30;12.98;;;;;;;;;;5115135;28;20051;-72
2021/11/02 11:29:56;;;;;;;13.80;12.30;;;;;;;;;;5120258;28;20040;-77
2021/11/02 11:32:23;;;;;;;18.33;13.00;;;;;;;;;;5119454;28;20507;-66
2021/11/02 11:34:51;;;;;;;17.60;13.43;;;;;;;;;;5120963;28;20095;-66
2021/11/02 11:37:21;;;;;;;18.45;13.52;;;;;;;;;;5119567;28;20031;-69
2021/11/02 11:39:47;;;;;;;17.27;14.18;;;;;;;;;;5096543;28;20049;-71
2021/11/02 11:42:18;;;;;;;18.77;14.35;;;;;;;;;;5098084;28;20134;-69
2021/11/02 11:44:49;;;;;;;19.95;15.35;;;;;;;;;;5096941;28;20040;-70
2021/11/02 11:47:22;;;;;;;20.08;15.60;;;;;;;;;;5097643;28;20037;-75
2021/11/02 11:49:49;;;;;;;22.23;15.45;;;;;;;;;;5092222;28;20056;-73
2021/11/02 11:52:20;;;;;;;23.80;16.13;;;;;;;;;;5093626;28;20040;-73
2021/11/02 11:54:50;;;;;;;22.27;14.23;;;;;;;;;;5091548;28;21044;-74
2021/11/02 11:57:38;;;;;;;17.80;12.90;;;;;;;;;;5093055;28;20069;-74
2021/11/02 12:00:08;;;;;;;18.13;13.85;;;;;;;;;;5096206;28;20496;-71
2021/11/02 12:02:42;;;;;;;16.05;13.07;;;;;;;;;;5089030;28;20048;-82
2021/11/02 12:05:19;;;;;;;14.30;12.43;;;;;;;;;;5092277;28;20086;-82
2021/11/02 12:07:51;;;;;;;19.65;13.68;;;;;;;;;;5093944;28;20115;-82
2021/11/02 12:10:21;;;;;;;19.67;13.35;;;;;;;;;;5092987;28;20052;-82
2021/11/02 12:12:50;;;;;;;19.05;12.63;;;;;;;;;;5095753;28;20056;-82
2021/11/02 12:15:17;;;;;;;16.52;13.52;;;;;;;;;;5095649;28;20052;-82
2021/11/02 12:17:44;;;;;;;15.27;12.60;;;;;;;;;;5095221;28;20132;-82
2021/11/02 12:20:11;;;;;;;13.15;10.90;;;;;;;;;;5100455;28;20094;-82
2021/11/02 12:22:42;;;;;;;18.35;11.50;;;;;;;;;;5090332;28;20131;-82
2021/11/02 12:25:11;;;;;;;14.23;11.10;;;;;;;;;;5096045;28;20048;-81
2021/11/02 12:27:38;;;;;;;12.45;11.07;;;;;;;;;;5094473;28;20329;-82
2021/11/02 12:30:11;;;;;;;11.77;10.20;;;;;;;;;;5092358;28;20036;-82
2021/11/02 12:32:45;;;;;;;16.10;10.38;;;;;;;;;;5093444;28;20136;-82
2021/11/02 12:35:19;;;;;;;15.32;10.38;;;;;;;;;;5084570;28;20059;-82
2021/11/02 12:37:56;;;;;;;14.25;9.32;;;;;;;;;;5079667;28;20048;-82
2021/11/02 12:40:24;;;;;;;17.80;9.68;;;;;;;;;;5095315;28;20055;-81
2021/11/02 12:42:50;;;;;;;14.27;10.95;;;;;;;;;;5094564;28;20055;-82
2021/11/02 12:45:18;;;;;;;15.00;9.38;;;;;;;;;;5097025;28;20036;-82
2021/11/02 12:47:48;;;;;;;10.95;9.15;;;;;;;;;;5080392;28;20048;-82
2021/11/02 12:50:16;;;;;;;12.07;9.10;;;;;;;;;;5094125;28;20496;-82
2021/11/02 12:52:42;;;;;;;9.10;7.78;;;;;;;;;;5092063;28;20503;-74
2021/11/02 12:55:10;;;;;;;12.90;8.82;;;;;;;;;;5094961;28;20066;-73
2021/11/02 12:57:37;;;;;;;9.82;8.27;;;;;;;;;;5098419;28;20115;-73
2021/11/02 13:00:06;;;;;;;11.43;8.40;;;;;;;;;;5095119;28;20043;-78
2021/11/02 13:02:36;;;;;;;15.20;8.88;;;;;;;;;;5097560;28;20052;-74
2021/11/02 13:05:06;;;;;;;8.80;7.25;;;;;;;;;;5099973;28;20032;-79
2021/11/02 13:07:40;;;;;;;14.10;7.65;;;;;;;;;;5094132;28;20036;-75
2021/11/02 13:10:14;;;;;;;12.98;7.97;;;;;;;;;;5096825;28;20042;-78
2021/11/02 13:12:41;;;;;;;11.38;7.68;;;;;;;;;;5102921;28;20048;-78
2021/11/02 13:15:11;;;;;;;13.00;9.35;;;;;;;;;;5101753;28;20093;-71
2021/11/02 13:17:40;;;;;;;20.25;8.52;;;;;;;;;;5095310;28;20048;-76
2021/11/02 13:20:07;;;;;;;10.23;6.65;;;;;;;;;;5095167;28;20484;-74
2021/11/02 13:22:33;;;;;;;10.98;6.65;;;;;;;;;;5097199;28;20048;-72
2021/11/02 13:25:12;;;;;;;9.07;6.18;;;;;;;;;;5100530;28;20052;-83
2021/11/02 13:27:40;;;;;;;13.32;7.68;;;;;;;;;;5099991;28;20103;-79
2021/11/02 13:30:25;;;;;;;11.93;6.70;;;;;;;;;;5091268;28;20047;-74
2021/11/02 13:32:58;;;;;;;12.20;7.05;;;;;;;;;;5098488;28;20047;-73
2021/11/02 13:35:44;;;;;;;8.68;7.03;;;;;;;;;;5094433;28;20047;-75
2021/11/02 13:38:30;;;;;;;8.77;7.07;;;;;;;;;;5078985;28;20056;-75
2021/11/02 13:40:58;;;;;;;10.82;6.20;;;;;;;;;;5113631;28;20070;-69
2021/11/02 13:43:25;;;;;;;14.40;6.75;;;;;;;;;;5116481;28;20058;-67
2021/11/02 13:45:51;;;;;;;11.25;6.70;;;;;;;;;;5098165;28;20047;-68
2021/11/02 13:48:18;;;;;;;9.82;7.25;;;;;;;;;;5098152;28;20051;-67
2021/11/02 13:50:45;;;;;;;8.60;6.78;;;;;;;;;;5119836;28;20596;-67
2021/11/02 13:53:11;;;;;;;10.45;6.57;;;;;;;;;;5117036;28;20198;-67
2021/11/02 13:55:37;;;;;;;8.32;6.00;;;;;;;;;;5123302;28;20035;-67
2021/11/02 13:58:04;;;;;;;9.30;6.03;;;;;;;;;;5084906;28;20044;-67
2021/11/02 14:00:31;;;;;;;9.13;7.00;;;;;;;;;;5119653;28;20306;-67
2021/11/02 14:03:00;;;;;;;11.65;6.93;;;;;;;;;;5122852;28;20040;-67
2021/11/02 14:05:27;;;;;;;8.73;6.78;;;;;;;;;;5099748;28;20123;-68
2021/11/02 14:07:53;;;;;;;10.23;6.78;;;;;;;;;;5099293;28;20069;-68
2021/11/02 14:10:19;;;;;;;8.68;6.20;;;;;;;;;;5115228;28;20164;-68
2021/11/02 14:12:53;;;;;;;8.70;6.68;;;;;;;;;;5100674;28;20811;-68
2021/11/02 14:15:20;;;;;;;8.20;6.30;;;;;;;;;;5102673;28;20055;-68
2021/11/02 14:18:10;;;;;;;8.90;7.32;;;;;;;;;;5119582;28;20072;-72
2021/11/02 14:20:40;;;;;;;10.45;6.72;;;;;;;;;;5099416;28;20093;-75
2021/11/02 14:23:08;;;;;;;8.20;6.85;;;;;;;;;;5120409;28;20035;-75
2021/11/02 14:25:35;;;;;;;10.32;7.47;;;;;;;;;;5099819;28;20055;-74
2021/11/02 14:28:01;;;;;;;11.35;6.82;;;;;;;;;;5109298;28;20054;-65
2021/11/02 14:30:33;;;;;;;8.55;6.68;;;;;;;;;;5111654;28;20130;-67
2021/11/02 14:33:03;;;;;;;8.88;6.15;;;;;;;;;;5113447;28;20073;-67
2021/11/02 14:35:36;;;;;;;9.73;6.80;;;;;;;;;;5116359;28;20055;-65
2021/11/02 14:38:10;;;;;;;9.77;7.40;;;;;;;;;;5099330;28;20097;-66
2021/11/02 14:40:40;;;;;;;10.52;6.60;;;;;;;;;;5119638;28;20046;-66
2021/11/02 14:43:17;;;;;;;11.18;6.78;;;;;;;;;;5118143;28;20566;-69
2021/11/02 14:45:54;;;;;;;11.85;6.72;;;;;;;;;;5097276;28;20051;-65
2021/11/02 14:48:33;;;;;;;12.75;6.47;;;;;;;;;;5112335;28;20063;-69
2021/11/02 14:51:20;;;;;;;11.63;6.95;;;;;;;;;;5096081;28;20044;-67
2021/11/02 14:53:46;;;;;;;11.75;7.32;;;;;;;;;;5118915;28;20055;-80
2021/11/02 14:56:15;;;;;;;9.65;6.80;;;;;;;;;;5095237;28;20390;-68
2021/11/02 14:58:43;;;;;;;10.98;7.28;;;;;;;;;;5095995;28;20055;-67
2021/11/02 15:01:12;;;;;;;16.45;7.93;;;;;;;;;;5115114;28;20035;-69
2021/11/02 15:03:42;;;;;;;9.60;8.32;;;;;;;;;;5115979;28;20482;-68
2021/11/02 15:06:13;;;;;;;9.23;8.23;;;;;;;;;;5116710;28;20035;-70
2021/11/02 15:08:40;;;;;;;12.07;8.68;;;;;;;;;;5110799;28;20101;-70
2021/11/02 15:11:08;;;;;;;12.77;7.80;;;;;;;;;;5093761;28;20054;-68
2021/11/02 15:13:34;;;;;;;10.85;7.97;;;;;;;;;;5113810;28;20105;-67
2021/11/02 15:16:01;;;;;;;7.80;6.97;;;;;;;;;;5113451;28;20061;-66
2021/11/02 15:18:41;;;;;;;13.15;8.52;;;;;;;;;;5094973;28;20130;-66
2021/11/02 15:21:08;;;;;;;12.55;8.63;;;;;;;;;;5093194;28;20051;-71
2021/11/02 15:23:39;;;;;;;14.23;8.60;;;;;;;;;;5096285;28;20047;-74
2021/11/02 15:26:05;;;;;;;13.48;9.00;;;;;;;;;;5095940;28;20185;-73
2021/11/02 15:28:31;;;;;;;13.38;9.43;;;;;;;;;;5112637;28;20024;-76
2021/11/02 15:31:04;;;;;;;12.45;8.32;;;;;;;;;;5113255;28;20158;-72
2021/11/02 15:33:32;;;;;;;13.77;9.32;;;;;;;;;;5111353;28;20054;-78
2021/11/02 15:36:19;;;;;;;13.63;9.93;;;;;;;;;;5113138;28;20038;-80
2021/11/02 15:39:03;;;;;;;11.43;9.23;;;;;;;;;;5113648;28;20074;-80
2021/11/02 15:41:30;;;;;;;14.43;8.93;;;;;;;;;;5110131;28;20052;-67
2021/11/02 15:43:58;;;;;;;19.95;9.57;;;;;;;;;;5098047;28;20069;-66
2021/11/02 15:46:33;;;;;;;13.38;9.85;;;;;;;;;;5115983;28;20542;-67
2021/11/02 15:49:02;;;;;;;15.13;9.20;;;;;;;;;;5111001;28;20054;-68
2021/11/02 15:51:30;;;;;;;14.20;10.32;;;;;;;;;;5114902;28;20078;-66
2021/11/02 15:53:58;;;;;;;14.38;10.32;;;;;;;;;;5116090;28;20047;-67
2021/11/02 15:56:25;;;;;;;12.98;8.75;;;;;;;;;;5112549;28;20129;-74
2021/11/02 15:58:58;;;;;;;12.63;9.63;;;;;;;;;;5114182;28;20040;-74
2021/11/02 16:01:34;;;;;;;15.82;9.77;;;;;;;;;;5112092;28;20461;-63
2021/11/02 16:04:13;;;;;;;15.82;9.75;;;;;;;;;;5108845;28;20036;-68
2021/11/02 16:06:38;;;;;;;;;;;;;;;;;;5091802;28;20414;-64
2021/11/02 16:09:06;;;;;;;13.65;8.95;;;;;;;;;;5112493;28;19929;-69
2021/11/02 16:11:32;;;;;;;13.60;11.30;;;;;;;;;;5094760;28;20048;-66
2021/11/02 16:14:06;;;;;;;13.75;10.43;;;;;;;;;;5114660;28;20107;-69
2021/11/02 16:16:33;;;;;;;15.65;10.80;;;;;;;;;;5113807;28;20035;-67
2021/11/02 16:18:59;;;;;;;15.23;10.65;;;;;;;;;;5095864;28;20079;-66
2021/11/02 16:21:31;;;;;;;14.90;9.95;;;;;;;;;;5120318;28;20044;-65
2021/11/02 16:24:05;;;;;;;13.40;10.75;;;;;;;;;;5115886;28;20055;-66
2021/11/02 16:26:31;;;;;;;16.48;11.60;;;;;;;;;;5117964;28;20353;-70
2021/11/02 16:29:14;;;;;;;16.15;11.50;;;;;;;;;;5116633;28;20079;-79
2021/11/02 16:31:41;;;;;;;17.40;11.48;;;;;;;;;;5095883;28;20112;-72
2021/11/02 16:34:24;;;;;;;18.33;12.07;;;;;;;;;;5118705;28;20430;-79
2021/11/02 16:36:51;;;;;;;13.63;11.23;;;;;;;;;;5081663;28;20407;-74
2021/11/02 16:39:22;;;;;;;17.15;11.70;;;;;;;;;;5120994;28;20056;-74
2021/11/02 16:41:50;;;;;;;17.25;12.27;;;;;;;;;;5111135;28;20058;-83
2021/11/02 16:44:24;;;;;;;16.00;12.55;;;;;;;;;;5100866;28;20075;-66
2021/11/02 16:46:51;;;;;;;21.05;13.50;;;;;;;;;;5117720;28;20107;-65
2021/11/02 16:49:20;;;;;;;17.85;13.60;;;;;;;;;;5093982;28;20470;-68
2021/11/02 16:51:46;;;;;;;19.33;13.50;;;;;;;;;;5114520;28;20043;-65
2021/11/02 16:54:13;;;;;;;16.08;13.10;;;;;;;;;;5118193;28;20050;-69
2021/11/02 16:56:55;;;;;;;17.77;13.05;;;;;;;;;;5117357;28;20040;-67
2021/11/02 16:59:42;;;;;;;16.70;12.38;;;;;;;;;;5120102;28;20104;-67
2021/11/02 17:02:14;;;;;;;17.60;12.77;;;;;;;;;;5082391;28;20059;-70
2021/11/02 17:04:41;;;;;;;22.45;13.43;;;;;;;;;;5078935;28;20075;-71
2021/11/02 17:07:11;;;;;;;15.48;12.60;;;;;;;;;;5100359;28;20036;-71
2021/11/02 17:09:41;;;;;;;22.73;14.18;;;;;;;;;;5095513;28;20119;-75
2021/11/02 17:12:11;;;;;;;21.25;14.40;;;;;;;;;;5116754;28;20051;-74
2021/11/02 17:14:41;;;;;;;17.20;13.43;;;;;;;;;;5116995;28;20510;-73
2021/11/02 17:17:09;;;;;;;17.17;12.63;;;;;;;;;;5096182;28;20103;-73
2021/11/02 17:19:42;;;;;;;19.05;13.55;;;;;;;;;;5098884;28;20040;-74
2021/11/02 17:22:09;;;;;;;15.13;11.95;;;;;;;;;;5116567;28;20043;-73
2021/11/02 17:24:35;;;;;;;16.58;13.27;;;;;;;;;;5116089;28;20127;-74
2021/11/02 17:27:01;;;;;;;18.08;13.40;;;;;;;;;;5101486;28;20046;-74
2021/11/02 17:29:28;;;;;;;18.63;13.60;;;;;;;;;;5118000;28;20047;-74
2021/11/02 17:31:54;;;;;;;15.38;13.02;;;;;;;;;;5116096;28;20390;-74
2021/11/02 17:34:24;;;;;;;17.85;13.70;;;;;;;;;;5116352;28;20047;-73
2021/11/02 17:36:51;;;;;;;20.02;13.93;;;;;;;;;;5099248;28;20047;-73
2021/11/02 17:39:17;;;;;;;18.77;13.73;;;;;;;;;;5095827;28;20073;-74
2021/11/02 17:41:45;;;;;;;18.33;12.63;;;;;;;;;;5096593;28;20062;-74
2021/11/02 17:44:12;;;;;;;20.25;12.73;;;;;;;;;;5094975;28;20054;-74
2021/11/02 17:46:38;;;;;;;14.55;12.38;;;;;;;;;;5094054;28;20062;-74
2021/11/02 17:49:05;;;;;;;21.92;12.38;;;;;;;;;;5093422;28;20090;-74
2021/11/02 17:51:31;;;;;;;17.70;11.73;;;;;;;;;;5095083;28;20044;-73
2021/11/02 17:53:57;;;;;;;15.05;12.13;;;;;;;;;;5094415;28;20040;-73
2021/11/02 17:56:24;;;;;;;17.23;12.27;;;;;;;;;;5089779;28;20198;-73
2021/11/02 17:58:51;;;;;;;16.02;11.45;;;;;;;;;;5073210;28;20176;-74
2021/11/02 18:01:17;;;;;;;19.98;11.73;;;;;;;;;;5096399;28;20048;-74
2021/11/02 18:03:46;;;;;;;14.60;11.40;;;;;;;;;;5094464;28;20037;-73
2021/11/02 18:06:13;;;;;;;15.20;10.23;;;;;;;;;;5093797;28;20048;-73
2021/11/02 18:08:40;;;;;;;15.90;11.13;;;;;;;;;;5089535;28;20068;-74
2021/11/02 18:11:06;;;;;;;19.92;11.82;;;;;;;;;;5096433;28;20044;-73
2021/11/02 18:13:33;;;;;;;15.52;11.98;;;;;;;;;;5097344;28;20100;-74
2021/11/02 18:16:04;;;;;;;16.50;11.10;;;;;;;;;;5094395;28;20048;-74
2021/11/02 18:18:37;;;;;;;16.42;10.70;;;;;;;;;;5094460;28;20366;-74
2021/11/02 18:21:06;;;;;;;13.05;10.98;;;;;;;;;;5093523;28;20423;-74
2021/11/02 18:23:33;;;;;;;12.88;10.18;;;;;;;;;;5094934;28;20048;-74
2021/11/02 18:25:59;;;;;;;15.18;10.77;;;;;;;;;;5094802;28;20040;-67
2021/11/02 18:28:25;;;;;;;16.27;10.60;;;;;;;;;;5095091;28;20051;-68
2021/11/02 18:30:51;;;;;;;15.18;10.60;;;;;;;;;;5093609;28;20045;-65
2021/11/02 18:33:18;;;;;;;14.57;10.13;;;;;;;;;;5097032;28;20044;-65
2021/11/02 18:35:44;;;;;;;15.93;11.30;;;;;;;;;;5096089;28;20067;-65
2021/11/02 18:38:11;;;;;;;16.05;11.95;;;;;;;;;;5096460;28;20104;-65
2021/11/02 18:40:38;;;;;;;14.00;11.38;;;;;;;;;;5093898;28;20064;-65
2021/11/02 18:43:05;;;;;;;13.80;11.63;;;;;;;;;;5094281;28;20123;-64
2021/11/02 18:45:31;;;;;;;18.23;11.65;;;;;;;;;;5093970;28;20040;-73
2021/11/02 18:47:58;;;;;;;14.85;11.60;;;;;;;;;;5088924;28;20040;-64
2021/11/02 18:50:25;;;;;;;12.63;11.10;;;;;;;;;;5093169;28;20043;-62
2021/11/02 18:52:51;;;;;;;17.10;10.70;;;;;;;;;;5090937;28;20109;-69
2021/11/02 18:55:17;;;;;;;13.70;11.73;;;;;;;;;;5095885;28;20049;-69
2021/11/02 18:57:44;;;;;;;13.10;11.70;;;;;;;;;;5092512;28;20147;-72
2021/11/02 19:00:12;;;;;;;15.23;11.73;;;;;;;;;;5095248;28;20053;-67
2021/11/02 19:02:38;;;;;;;;;;;;;;;;;;5099507;28;20032;-68
2021/11/02 19:05:09;;;;;;;18.98;13.10;;;;;;;;;;5096284;28;19984;-69
2021/11/02 19:07:36;;;;;;;22.02;13.60;;;;;;;;;;5100428;28;20051;-68
2021/11/02 19:10:03;;;;;;;17.92;13.38;;;;;;;;;;5091431;28;20049;-74
2021/11/02 19:12:30;;;;;;;18.65;13.88;;;;;;;;;;5097841;28;20055;-70
2021/11/02 19:14:56;;;;;;;20.35;13.70;;;;;;;;;;5095922;28;20067;-66
2021/11/02 19:17:23;;;;;;;21.83;14.15;;;;;;;;;;5094383;28;20442;-66
2021/11/02 19:19:49;;;;;;;23.65;14.00;;;;;;;;;;5098066;28;20044;-67
2021/11/02 19:22:15;;;;;;;20.83;14.32;;;;;;;;;;5095567;28;20051;-67
2021/11/02 19:24:41;;;;;;;19.40;14.57;;;;;;;;;;5092558;28;20048;-68
2021/11/02 19:27:07;;;;;;;20.65;13.73;;;;;;;;;;5096065;28;20040;-67
2021/11/02 19:29:33;;;;;;;20.52;13.90;;;;;;;;;;5097785;28;20349;-67
2021/11/02 19:31:59;;;;;;;21.52;15.07;;;;;;;;;;5097684;28;20044;-67
2021/11/02 19:34:25;;;;;;;22.17;15.65;;;;;;;;;;5090070;28;20092;-66
2021/11/02 19:36:55;;;;;;;20.50;15.73;;;;;;;;;;5089962;28;20049;-72
2021/11/02 19:39:21;;;;;;;20.30;15.45;;;;;;;;;;5098834;28;20083;-74
2021/11/02 19:41:47;;;;;;;29.70;17.38;;;;;;;;;;5095690;28;20078;-75
2021/11/02 19:44:13;;;;;;;23.95;16.45;;;;;;;;;;5103138;28;20050;-76
2021/11/02 19:46:39;;;;;;;24.48;17.55;;;;;;;;;;5110242;28;20036;-76
2021/11/02 19:49:05;;;;;;;24.45;16.95;;;;;;;;;;5113049;28;20047;-75
2021/11/02 19:51:31;;;;;;;25.27;17.85;;;;;;;;;;5117441;28;20063;-75